sensor_id;sensor_type;location;lat;lon;timestamp;temperature;humidity
4103;DHT22;2065;49.790;9.620;2023-02-28T00:00:41;5.10;45.30
4103;DHT22;2065;49.790;9.620;2023-02-28T00:03:08;5.10;45.10
4103;DHT22;2065;49.790;9.620;2023-02-28T00:05:35;5.10;45.10
4103;DHT22;2065;49.790;9.620;2023-02-28T00:08:02;5.20;44.80
4103;DHT22;2065;49.790;9.620;2023-02-28T00:10:31;5.20;44.40
4103;DHT22;2065;49.790;9.620;2023-02-28T00:13:03;5.20;44.90
4103;DHT22;2065;49.790;9.620;2023-02-28T00:15:31;5.20;44.60
4103;DHT22;2065;49.790;9.620;2023-02-28T00:17:58;5.20;44.30
4103;DHT22;2065;49.790;9.620;2023-02-28T00:20:25;5.10;44.60
4103;DHT22;2065;49.790;9.620;2023-02-28T00:22:53;5.10;44.70
4103;DHT22;2065;49.790;9.620;2023-02-28T00:25:22;5.00;44.20
4103;DHT22;2065;49.790;9.620;2023-02-28T00:27:49;4.60;45.10
4103;DHT22;2065;49.790;9.620;2023-02-28T00:30:19;4.70;45.60
4103;DHT22;2065;49.790;9.620;2023-02-28T00:32:47;4.70;45.60
4103;DHT22;2065;49.790;9.620;2023-02-28T00:35:14;4.70;46.20
4103;DHT22;2065;49.790;9.620;2023-02-28T00:37:41;4.70;45.60
4103;DHT22;2065;49.790;9.620;2023-02-28T00:40:09;4.40;45.80
4103;DHT22;2065;49.790;9.620;2023-02-28T00:42:37;4.50;45.80
4103;DHT22;2065;49.790;9.620;2023-02-28T00:45:05;4.50;45.90
4103;DHT22;2065;49.790;9.620;2023-02-28T00:47:35;4.70;45.90
4103;DHT22;2065;49.790;9.620;2023-02-28T00:50:03;4.80;45.60
4103;DHT22;2065;49.790;9.620;2023-02-28T00:52:30;4.80;45.60
4103;DHT22;2065;49.790;9.620;2023-02-28T00:54:57;4.80;45.60
4103;DHT22;2065;49.790;9.620;2023-02-28T00:57:24;4.90;45.50
4103;DHT22;2065;49.790;9.620;2023-02-28T00:59:51;5.00;45.20
4103;DHT22;2065;49.790;9.620;2023-02-28T01:02:20;4.90;45.30
4103;DHT22;2065;49.790;9.620;2023-02-28T01:04:49;4.80;45.50
4103;DHT22;2065;49.790;9.620;2023-02-28T01:07:16;4.60;45.70
4103;DHT22;2065;49.790;9.620;2023-02-28T01:09:43;4.40;46.30
4103;DHT22;2065;49.790;9.620;2023-02-28T01:12:10;4.50;46.30
4103;DHT22;2065;49.790;9.620;2023-02-28T01:14:37;4.50;46.40
4103;DHT22;2065;49.790;9.620;2023-02-28T01:17:04;4.60;46.40
4103;DHT22;2065;49.790;9.620;2023-02-28T01:19:32;4.70;45.90
4103;DHT22;2065;49.790;9.620;2023-02-28T01:22:02;4.80;45.70
4103;DHT22;2065;49.790;9.620;2023-02-28T01:24:29;4.90;45.50
4103;DHT22;2065;49.790;9.620;2023-02-28T01:26:56;4.80;45.50
4103;DHT22;2065;49.790;9.620;2023-02-28T01:29:23;4.70;45.70
4103;DHT22;2065;49.790;9.620;2023-02-28T01:31:52;4.80;45.90
4103;DHT22;2065;49.790;9.620;2023-02-28T01:34:19;4.70;45.90
4103;DHT22;2065;49.790;9.620;2023-02-28T01:36:46;4.70;45.90
4103;DHT22;2065;49.790;9.620;2023-02-28T01:39:14;4.60;45.80
4103;DHT22;2065;49.790;9.620;2023-02-28T01:41:41;4.50;45.90
4103;DHT22;2065;49.790;9.620;2023-02-28T01:47:09;4.40;46.10
4103;DHT22;2065;49.790;9.620;2023-02-28T01:49:36;4.30;46.30
4103;DHT22;2065;49.790;9.620;2023-02-28T01:52:03;4.30;46.50
4103;DHT22;2065;49.790;9.620;2023-02-28T01:54:34;4.40;46.30
4103;DHT22;2065;49.790;9.620;2023-02-28T01:57:05;4.40;46.20
4103;DHT22;2065;49.790;9.620;2023-02-28T01:59:36;4.00;46.60
4103;DHT22;2065;49.790;9.620;2023-02-28T02:02:05;4.10;47.00
4103;DHT22;2065;49.790;9.620;2023-02-28T02:04:36;4.20;46.70
4103;DHT22;2065;49.790;9.620;2023-02-28T02:07:04;4.20;46.60
4103;DHT22;2065;49.790;9.620;2023-02-28T02:09:33;4.40;46.60
4103;DHT22;2065;49.790;9.620;2023-02-28T02:12:08;4.40;46.00
4103;DHT22;2065;49.790;9.620;2023-02-28T02:14:54;4.40;45.90
4103;DHT22;2065;49.790;9.620;2023-02-28T02:17:29;4.30;45.90
4103;DHT22;2065;49.790;9.620;2023-02-28T02:20:22;4.40;46.10
4103;DHT22;2065;49.790;9.620;2023-02-28T02:23:17;4.30;46.00
4103;DHT22;2065;49.790;9.620;2023-02-28T02:25:53;4.20;46.30
4103;DHT22;2065;49.790;9.620;2023-02-28T02:28:41;4.30;46.30
4103;DHT22;2065;49.790;9.620;2023-02-28T02:31:33;4.40;46.20
4103;DHT22;2065;49.790;9.620;2023-02-28T02:37:24;4.30;46.00
4103;DHT22;2065;49.790;9.620;2023-02-28T02:40:04;4.40;45.90
4103;DHT22;2065;49.790;9.620;2023-02-28T02:42:41;4.40;45.80
4103;DHT22;2065;49.790;9.620;2023-02-28T02:45:12;4.40;45.80
4103;DHT22;2065;49.790;9.620;2023-02-28T02:47:43;4.40;45.80
4103;DHT22;2065;49.790;9.620;2023-02-28T02:50:14;4.40;45.70
4103;DHT22;2065;49.790;9.620;2023-02-28T02:52:48;4.20;45.90
4103;DHT22;2065;49.790;9.620;2023-02-28T02:55:17;4.30;46.20
4103;DHT22;2065;49.790;9.620;2023-02-28T02:57:48;4.30;45.90
4103;DHT22;2065;49.790;9.620;2023-02-28T03:00:19;4.30;45.70
4103;DHT22;2065;49.790;9.620;2023-02-28T03:02:49;4.30;45.60
4103;DHT22;2065;49.790;9.620;2023-02-28T03:05:21;4.10;46.20
4103;DHT22;2065;49.790;9.620;2023-02-28T03:07:51;4.10;46.30
4103;DHT22;2065;49.790;9.620;2023-02-28T03:10:37;3.80;46.50
4103;DHT22;2065;49.790;9.620;2023-02-28T03:13:13;3.90;46.70
4103;DHT22;2065;49.790;9.620;2023-02-28T03:15:58;4.00;47.00
4103;DHT22;2065;49.790;9.620;2023-02-28T03:18:36;4.00;47.00
4103;DHT22;2065;49.790;9.620;2023-02-28T03:21:12;3.80;46.80
4103;DHT22;2065;49.790;9.620;2023-02-28T03:23:48;3.80;47.40
4103;DHT22;2065;49.790;9.620;2023-02-28T03:26:19;4.00;47.00
4103;DHT22;2065;49.790;9.620;2023-02-28T03:28:53;4.00;46.70
4103;DHT22;2065;49.790;9.620;2023-02-28T03:31:26;3.80;46.30
4103;DHT22;2065;49.790;9.620;2023-02-28T03:33:59;3.50;47.00
4103;DHT22;2065;49.790;9.620;2023-02-28T03:36:29;3.60;47.20
4103;DHT22;2065;49.790;9.620;2023-02-28T03:39:00;3.80;47.40
4103;DHT22;2065;49.790;9.620;2023-02-28T03:41:32;4.00;47.20
4103;DHT22;2065;49.790;9.620;2023-02-28T03:44:06;4.00;46.60
4103;DHT22;2065;49.790;9.620;2023-02-28T03:46:38;4.00;46.40
4103;DHT22;2065;49.790;9.620;2023-02-28T03:49:11;4.10;46.60
4103;DHT22;2065;49.790;9.620;2023-02-28T03:51:42;4.20;46.30
4103;DHT22;2065;49.790;9.620;2023-02-28T03:54:15;4.10;45.80
4103;DHT22;2065;49.790;9.620;2023-02-28T03:56:49;4.10;46.30
4103;DHT22;2065;49.790;9.620;2023-02-28T03:59:21;3.90;46.00
4103;DHT22;2065;49.790;9.620;2023-02-28T04:01:49;3.90;46.70
4103;DHT22;2065;49.790;9.620;2023-02-28T04:04:17;4.00;46.70
4103;DHT22;2065;49.790;9.620;2023-02-28T04:06:45;4.00;46.40
4103;DHT22;2065;49.790;9.620;2023-02-28T04:09:14;4.00;46.40
4103;DHT22;2065;49.790;9.620;2023-02-28T04:11:43;4.00;46.30
4103;DHT22;2065;49.790;9.620;2023-02-28T04:14:11;4.00;46.40
4103;DHT22;2065;49.790;9.620;2023-02-28T04:16:39;3.90;46.60
4103;DHT22;2065;49.790;9.620;2023-02-28T04:19:08;3.90;46.50
4103;DHT22;2065;49.790;9.620;2023-02-28T04:21:37;3.60;46.50
4103;DHT22;2065;49.790;9.620;2023-02-28T04:24:06;3.60;47.20
4103;DHT22;2065;49.790;9.620;2023-02-28T04:26:36;3.40;46.90
4103;DHT22;2065;49.790;9.620;2023-02-28T04:29:04;3.40;47.50
4103;DHT22;2065;49.790;9.620;2023-02-28T04:31:31;3.60;47.10
4103;DHT22;2065;49.790;9.620;2023-02-28T04:33:59;3.70;47.00
4103;DHT22;2065;49.790;9.620;2023-02-28T04:36:26;3.70;46.50
4103;DHT22;2065;49.790;9.620;2023-02-28T04:38:53;3.70;46.70
4103;DHT22;2065;49.790;9.620;2023-02-28T04:41:20;3.80;46.50
4103;DHT22;2065;49.790;9.620;2023-02-28T04:43:51;3.70;46.70
4103;DHT22;2065;49.790;9.620;2023-02-28T04:46:18;3.70;46.80
4103;DHT22;2065;49.790;9.620;2023-02-28T04:48:46;3.70;46.80
4103;DHT22;2065;49.790;9.620;2023-02-28T04:51:15;3.50;46.90
4103;DHT22;2065;49.790;9.620;2023-02-28T04:53:43;3.60;47.00
4103;DHT22;2065;49.790;9.620;2023-02-28T04:56:12;3.70;46.80
4103;DHT22;2065;49.790;9.620;2023-02-28T04:58:39;3.70;46.60
4103;DHT22;2065;49.790;9.620;2023-02-28T05:01:17;3.80;46.40
4103;DHT22;2065;49.790;9.620;2023-02-28T05:03:44;3.80;46.30
4103;DHT22;2065;49.790;9.620;2023-02-28T05:06:12;3.90;46.30
4103;DHT22;2065;49.790;9.620;2023-02-28T05:08:40;3.70;46.00
4103;DHT22;2065;49.790;9.620;2023-02-28T05:11:12;3.60;46.60
4103;DHT22;2065;49.790;9.620;2023-02-28T05:13:40;3.60;46.70
4103;DHT22;2065;49.790;9.620;2023-02-28T05:16:08;3.70;46.80
4103;DHT22;2065;49.790;9.620;2023-02-28T05:18:35;3.70;46.70
4103;DHT22;2065;49.790;9.620;2023-02-28T05:21:03;3.60;46.50
4103;DHT22;2065;49.790;9.620;2023-02-28T05:23:30;3.60;46.50
4103;DHT22;2065;49.790;9.620;2023-02-28T05:25:57;3.20;47.00
4103;DHT22;2065;49.790;9.620;2023-02-28T05:28:24;3.30;47.20
4103;DHT22;2065;49.790;9.620;2023-02-28T05:30:50;3.30;47.50
4103;DHT22;2065;49.790;9.620;2023-02-28T05:33:19;3.40;47.20
4103;DHT22;2065;49.790;9.620;2023-02-28T05:35:46;3.50;47.00
4103;DHT22;2065;49.790;9.620;2023-02-28T05:38:12;3.50;46.70
4103;DHT22;2065;49.790;9.620;2023-02-28T05:40:40;3.60;46.60
4103;DHT22;2065;49.790;9.620;2023-02-28T05:43:10;3.60;46.40
4103;DHT22;2065;49.790;9.620;2023-02-28T05:45:37;3.70;46.00
4103;DHT22;2065;49.790;9.620;2023-02-28T05:48:04;3.60;46.10
4103;DHT22;2065;49.790;9.620;2023-02-28T05:50:33;3.70;46.20
4103;DHT22;2065;49.790;9.620;2023-02-28T05:52:59;3.70;45.90
4103;DHT22;2065;49.790;9.620;2023-02-28T05:55:26;3.70;45.80
4103;DHT22;2065;49.790;9.620;2023-02-28T05:57:53;3.50;46.30
4103;DHT22;2065;49.790;9.620;2023-02-28T06:00:21;3.50;46.20
4103;DHT22;2065;49.790;9.620;2023-02-28T06:02:48;3.30;46.50
4103;DHT22;2065;49.790;9.620;2023-02-28T06:05:17;3.30;46.70
4103;DHT22;2065;49.790;9.620;2023-02-28T06:07:46;3.40;46.70
4103;DHT22;2065;49.790;9.620;2023-02-28T06:10:13;3.40;46.40
4103;DHT22;2065;49.790;9.620;2023-02-28T06:12:40;3.30;46.60
4103;DHT22;2065;49.790;9.620;2023-02-28T06:15:11;3.40;46.80
4103;DHT22;2065;49.790;9.620;2023-02-28T06:17:39;3.50;46.40
4103;DHT22;2065;49.790;9.620;2023-02-28T06:20:07;3.40;46.50
4103;DHT22;2065;49.790;9.620;2023-02-28T06:22:35;3.30;46.70
4103;DHT22;2065;49.790;9.620;2023-02-28T06:25:04;3.30;46.80
4103;DHT22;2065;49.790;9.620;2023-02-28T06:27:31;3.40;46.60
4103;DHT22;2065;49.790;9.620;2023-02-28T06:29:58;3.30;46.20
4103;DHT22;2065;49.790;9.620;2023-02-28T06:32:25;3.20;46.30
4103;DHT22;2065;49.790;9.620;2023-02-28T06:34:52;3.20;46.50
4103;DHT22;2065;49.790;9.620;2023-02-28T06:37:19;3.30;47.10
4103;DHT22;2065;49.790;9.620;2023-02-28T06:39:46;3.40;46.90
4103;DHT22;2065;49.790;9.620;2023-02-28T06:42:14;3.50;46.80
4103;DHT22;2065;49.790;9.620;2023-02-28T06:44:41;3.50;46.30
4103;DHT22;2065;49.790;9.620;2023-02-28T06:47:09;3.60;46.10
4103;DHT22;2065;49.790;9.620;2023-02-28T06:49:36;3.50;46.30
4103;DHT22;2065;49.790;9.620;2023-02-28T06:52:04;3.50;45.80
4103;DHT22;2065;49.790;9.620;2023-02-28T06:54:31;3.50;45.90
4103;DHT22;2065;49.790;9.620;2023-02-28T06:56:58;3.40;45.80
4103;DHT22;2065;49.790;9.620;2023-02-28T06:59:27;3.40;46.30
4103;DHT22;2065;49.790;9.620;2023-02-28T07:01:53;3.50;45.90
4103;DHT22;2065;49.790;9.620;2023-02-28T07:04:22;3.30;46.00
4103;DHT22;2065;49.790;9.620;2023-02-28T07:06:49;3.10;46.20
4103;DHT22;2065;49.790;9.620;2023-02-28T07:09:16;3.10;46.20
4103;DHT22;2065;49.790;9.620;2023-02-28T07:11:44;3.10;46.60
4103;DHT22;2065;49.790;9.620;2023-02-28T07:14:11;3.20;46.40
4103;DHT22;2065;49.790;9.620;2023-02-28T07:16:39;3.10;46.30
4103;DHT22;2065;49.790;9.620;2023-02-28T07:19:06;3.30;47.10
4103;DHT22;2065;49.790;9.620;2023-02-28T07:21:33;3.00;46.10
4103;DHT22;2065;49.790;9.620;2023-02-28T07:24:00;3.00;47.00
4103;DHT22;2065;49.790;9.620;2023-02-28T07:26:27;2.90;47.00
4103;DHT22;2065;49.790;9.620;2023-02-28T07:28:54;2.90;47.00
4103;DHT22;2065;49.790;9.620;2023-02-28T07:31:21;2.80;47.10
4103;DHT22;2065;49.790;9.620;2023-02-28T07:33:49;2.80;47.30
4103;DHT22;2065;49.790;9.620;2023-02-28T07:36:17;2.80;47.50
4103;DHT22;2065;49.790;9.620;2023-02-28T07:38:46;2.90;47.80
4103;DHT22;2065;49.790;9.620;2023-02-28T07:41:15;3.10;47.40
4103;DHT22;2065;49.790;9.620;2023-02-28T07:43:42;3.20;47.20
4103;DHT22;2065;49.790;9.620;2023-02-28T07:46:11;3.20;46.90
4103;DHT22;2065;49.790;9.620;2023-02-28T07:48:41;3.30;47.00
4103;DHT22;2065;49.790;9.620;2023-02-28T07:51:09;3.50;46.70
4103;DHT22;2065;49.790;9.620;2023-02-28T07:53:36;3.30;46.20
4103;DHT22;2065;49.790;9.620;2023-02-28T07:56:03;3.30;46.70
4103;DHT22;2065;49.790;9.620;2023-02-28T07:58:31;3.40;46.70
4103;DHT22;2065;49.790;9.620;2023-02-28T08:01:04;3.00;47.10
4103;DHT22;2065;49.790;9.620;2023-02-28T08:03:32;2.70;48.00
4103;DHT22;2065;49.790;9.620;2023-02-28T08:05:59;2.70;48.20
4103;DHT22;2065;49.790;9.620;2023-02-28T08:08:27;2.90;48.10
4103;DHT22;2065;49.790;9.620;2023-02-28T08:10:54;3.00;47.90
4103;DHT22;2065;49.790;9.620;2023-02-28T08:13:21;3.30;47.70
4103;DHT22;2065;49.790;9.620;2023-02-28T08:15:48;3.40;46.90
4103;DHT22;2065;49.790;9.620;2023-02-28T08:18:15;3.20;46.90
4103;DHT22;2065;49.790;9.620;2023-02-28T08:20:42;3.10;47.50
4103;DHT22;2065;49.790;9.620;2023-02-28T08:23:09;3.20;47.40
4103;DHT22;2065;49.790;9.620;2023-02-28T08:25:37;3.10;48.00
4103;DHT22;2065;49.790;9.620;2023-02-28T08:28:04;3.30;47.90
4103;DHT22;2065;49.790;9.620;2023-02-28T08:30:31;3.30;47.50
4103;DHT22;2065;49.790;9.620;2023-02-28T08:32:58;3.40;47.50
4103;DHT22;2065;49.790;9.620;2023-02-28T08:35:25;3.20;47.40
4103;DHT22;2065;49.790;9.620;2023-02-28T08:37:52;3.30;47.60
4103;DHT22;2065;49.790;9.620;2023-02-28T08:40:19;3.30;47.40
4103;DHT22;2065;49.790;9.620;2023-02-28T08:42:47;3.50;47.60
4103;DHT22;2065;49.790;9.620;2023-02-28T08:45:15;3.50;46.90
4103;DHT22;2065;49.790;9.620;2023-02-28T08:47:42;3.80;47.10
4103;DHT22;2065;49.790;9.620;2023-02-28T08:50:09;3.80;46.60
4103;DHT22;2065;49.790;9.620;2023-02-28T08:52:36;3.70;46.70
4103;DHT22;2065;49.790;9.620;2023-02-28T08:55:04;3.80;46.70
4103;DHT22;2065;49.790;9.620;2023-02-28T08:57:32;3.80;46.90
4103;DHT22;2065;49.790;9.620;2023-02-28T09:00:00;3.90;46.20
4103;DHT22;2065;49.790;9.620;2023-02-28T09:02:30;4.00;46.50
4103;DHT22;2065;49.790;9.620;2023-02-28T09:04:57;3.90;46.10
4103;DHT22;2065;49.790;9.620;2023-02-28T09:07:24;4.00;46.10
4103;DHT22;2065;49.790;9.620;2023-02-28T09:09:51;4.10;46.20
4103;DHT22;2065;49.790;9.620;2023-02-28T09:12:21;4.30;46.20
4103;DHT22;2065;49.790;9.620;2023-02-28T09:14:48;4.40;45.80
4103;DHT22;2065;49.790;9.620;2023-02-28T09:17:16;4.70;45.30
4103;DHT22;2065;49.790;9.620;2023-02-28T09:19:44;4.80;44.90
4103;DHT22;2065;49.790;9.620;2023-02-28T09:22:11;4.50;44.20
4103;DHT22;2065;49.790;9.620;2023-02-28T09:24:38;4.50;44.50
4103;DHT22;2065;49.790;9.620;2023-02-28T09:27:05;4.60;44.80
4103;DHT22;2065;49.790;9.620;2023-02-28T09:29:33;4.80;44.70
4103;DHT22;2065;49.790;9.620;2023-02-28T09:32:01;4.70;44.30
4103;DHT22;2065;49.790;9.620;2023-02-28T09:34:29;4.50;43.70
4103;DHT22;2065;49.790;9.620;2023-02-28T09:36:57;4.60;44.20
4103;DHT22;2065;49.790;9.620;2023-02-28T09:39:24;4.60;43.50
4103;DHT22;2065;49.790;9.620;2023-02-28T09:41:52;4.50;43.50
4103;DHT22;2065;49.790;9.620;2023-02-28T09:44:26;4.70;43.80
4103;DHT22;2065;49.790;9.620;2023-02-28T09:46:57;4.80;42.70
4103;DHT22;2065;49.790;9.620;2023-02-28T09:49:34;4.80;42.90
4103;DHT22;2065;49.790;9.620;2023-02-28T09:52:04;5.00;43.30
4103;DHT22;2065;49.790;9.620;2023-02-28T09:54:34;5.20;42.10
4103;DHT22;2065;49.790;9.620;2023-02-28T09:57:06;5.10;42.10
4103;DHT22;2065;49.790;9.620;2023-02-28T09:59:41;5.20;41.50
4103;DHT22;2065;49.790;9.620;2023-02-28T10:02:20;5.30;41.80
4103;DHT22;2065;49.790;9.620;2023-02-28T10:04:51;5.20;41.60
4103;DHT22;2065;49.790;9.620;2023-02-28T10:07:35;5.10;41.90
4103;DHT22;2065;49.790;9.620;2023-02-28T10:10:13;5.30;42.40
4103;DHT22;2065;49.790;9.620;2023-02-28T10:12:44;5.50;42.20
4103;DHT22;2065;49.790;9.620;2023-02-28T10:15:14;5.80;41.30
4103;DHT22;2065;49.790;9.620;2023-02-28T10:17:43;5.70;40.80
4103;DHT22;2065;49.790;9.620;2023-02-28T10:20:17;5.80;41.00
4103;DHT22;2065;49.790;9.620;2023-02-28T10:22:52;5.60;41.30
4103;DHT22;2065;49.790;9.620;2023-02-28T10:25:22;6.00;41.70
4103;DHT22;2065;49.790;9.620;2023-02-28T10:27:50;6.00;40.40
4103;DHT22;2065;49.790;9.620;2023-02-28T10:30:19;6.20;40.30
4103;DHT22;2065;49.790;9.620;2023-02-28T10:32:49;6.50;39.70
4103;DHT22;2065;49.790;9.620;2023-02-28T10:35:21;6.30;39.50
4103;DHT22;2065;49.790;9.620;2023-02-28T10:37:51;6.30;40.40
4103;DHT22;2065;49.790;9.620;2023-02-28T10:40:31;6.40;40.00
4103;DHT22;2065;49.790;9.620;2023-02-28T10:42:59;6.60;40.00
4103;DHT22;2065;49.790;9.620;2023-02-28T10:45:29;6.80;39.70
4103;DHT22;2065;49.790;9.620;2023-02-28T10:47:59;6.90;39.60
4103;DHT22;2065;49.790;9.620;2023-02-28T10:50:33;6.90;38.80
4103;DHT22;2065;49.790;9.620;2023-02-28T10:53:27;7.00;38.60
4103;DHT22;2065;49.790;9.620;2023-02-28T10:55:59;7.00;38.70
4103;DHT22;2065;49.790;9.620;2023-02-28T10:58:29;7.20;38.90
4103;DHT22;2065;49.790;9.620;2023-02-28T11:00:56;7.40;38.30
4103;DHT22;2065;49.790;9.620;2023-02-28T11:03:28;7.50;37.90
4103;DHT22;2065;49.790;9.620;2023-02-28T11:05:57;7.50;37.50
4103;DHT22;2065;49.790;9.620;2023-02-28T11:08:24;7.40;37.20
4103;DHT22;2065;49.790;9.620;2023-02-28T11:10:55;7.40;37.00
4103;DHT22;2065;49.790;9.620;2023-02-28T11:13:26;7.00;37.50
4103;DHT22;2065;49.790;9.620;2023-02-28T11:15:55;7.00;38.70
4103;DHT22;2065;49.790;9.620;2023-02-28T11:18:27;7.20;38.80
4103;DHT22;2065;49.790;9.620;2023-02-28T11:20:58;7.40;38.20
4103;DHT22;2065;49.790;9.620;2023-02-28T11:23:28;7.40;38.30
4103;DHT22;2065;49.790;9.620;2023-02-28T11:25:59;7.50;38.10
4103;DHT22;2065;49.790;9.620;2023-02-28T11:28:28;7.60;37.70
4103;DHT22;2065;49.790;9.620;2023-02-28T11:31:02;7.70;37.60
4103;DHT22;2065;49.790;9.620;2023-02-28T11:33:31;7.50;37.70
4103;DHT22;2065;49.790;9.620;2023-02-28T11:36:03;7.70;37.20
4103;DHT22;2065;49.790;9.620;2023-02-28T11:38:34;7.90;37.20
4103;DHT22;2065;49.790;9.620;2023-02-28T11:41:10;8.20;37.30
4103;DHT22;2065;49.790;9.620;2023-02-28T11:43:53;8.30;37.20
4103;DHT22;2065;49.790;9.620;2023-02-28T11:46:27;8.40;36.00
4103;DHT22;2065;49.790;9.620;2023-02-28T11:49:03;8.00;36.00
4103;DHT22;2065;49.790;9.620;2023-02-28T11:51:40;8.00;36.10
4103;DHT22;2065;49.790;9.620;2023-02-28T11:54:32;7.90;36.70
4103;DHT22;2065;49.790;9.620;2023-02-28T11:57:14;7.50;36.10
4103;DHT22;2065;49.790;9.620;2023-02-28T11:59:53;7.50;37.00
4103;DHT22;2065;49.790;9.620;2023-02-28T12:02:30;7.60;37.00
4103;DHT22;2065;49.790;9.620;2023-02-28T12:05:22;7.70;36.80
4103;DHT22;2065;49.790;9.620;2023-02-28T12:08:02;7.60;37.20
4103;DHT22;2065;49.790;9.620;2023-02-28T12:10:40;7.40;36.90
4103;DHT22;2065;49.790;9.620;2023-02-28T12:13:18;7.10;36.90
4103;DHT22;2065;49.790;9.620;2023-02-28T12:16:00;7.10;37.50
4103;DHT22;2065;49.790;9.620;2023-02-28T12:18:42;7.20;37.40
4103;DHT22;2065;49.790;9.620;2023-02-28T12:21:18;7.20;37.20
4103;DHT22;2065;49.790;9.620;2023-02-28T12:24:14;7.10;37.70
4103;DHT22;2065;49.790;9.620;2023-02-28T12:26:46;7.20;37.10
4103;DHT22;2065;49.790;9.620;2023-02-28T12:29:19;7.40;37.50
4103;DHT22;2065;49.790;9.620;2023-02-28T12:31:52;7.30;37.00
4103;DHT22;2065;49.790;9.620;2023-02-28T12:34:24;7.30;37.40
4103;DHT22;2065;49.790;9.620;2023-02-28T12:36:54;7.90;37.50
4103;DHT22;2065;49.790;9.620;2023-02-28T12:39:26;8.10;36.00
4103;DHT22;2065;49.790;9.620;2023-02-28T12:41:59;8.20;37.00
4103;DHT22;2065;49.790;9.620;2023-02-28T12:44:32;8.60;35.60
4103;DHT22;2065;49.790;9.620;2023-02-28T12:47:02;8.90;34.70
4103;DHT22;2065;49.790;9.620;2023-02-28T12:49:33;9.10;35.00
4103;DHT22;2065;49.790;9.620;2023-02-28T12:52:03;9.00;34.00
4103;DHT22;2065;49.790;9.620;2023-02-28T12:54:40;8.80;33.90
4103;DHT22;2065;49.790;9.620;2023-02-28T12:57:12;8.90;34.50
4103;DHT22;2065;49.790;9.620;2023-02-28T12:59:48;9.00;34.30
4103;DHT22;2065;49.790;9.620;2023-02-28T13:02:52;8.80;34.40
4103;DHT22;2065;49.790;9.620;2023-02-28T13:05:52;9.00;34.40
4103;DHT22;2065;49.790;9.620;2023-02-28T13:08:36;9.30;34.20
4103;DHT22;2065;49.790;9.620;2023-02-28T13:11:23;9.60;34.20
4103;DHT22;2065;49.790;9.620;2023-02-28T13:13:57;9.70;33.10
4103;DHT22;2065;49.790;9.620;2023-02-28T13:16:25;9.90;33.30
4103;DHT22;2065;49.790;9.620;2023-02-28T13:18:52;9.90;32.80
4103;DHT22;2065;49.790;9.620;2023-02-28T13:21:24;9.50;33.20
4103;DHT22;2065;49.790;9.620;2023-02-28T13:24:00;9.60;34.30
4103;DHT22;2065;49.790;9.620;2023-02-28T13:29:41;10.10;32.00
4103;DHT22;2065;49.790;9.620;2023-02-28T13:32:34;10.00;31.10
4103;DHT22;2065;49.790;9.620;2023-02-28T13:35:36;10.10;31.60
4103;DHT22;2065;49.790;9.620;2023-02-28T13:38:17;9.90;32.20
4103;DHT22;2065;49.790;9.620;2023-02-28T13:40:47;9.90;32.30
4103;DHT22;2065;49.790;9.620;2023-02-28T13:43:17;9.90;33.20
4103;DHT22;2065;49.790;9.620;2023-02-28T13:46:12;10.20;31.60
4103;DHT22;2065;49.790;9.620;2023-02-28T13:48:39;10.10;31.20
4103;DHT22;2065;49.790;9.620;2023-02-28T13:51:41;10.00;31.50
4103;DHT22;2065;49.790;9.620;2023-02-28T13:54:20;10.30;31.20
4103;DHT22;2065;49.790;9.620;2023-02-28T13:56:55;9.80;32.60
4103;DHT22;2065;49.790;9.620;2023-02-28T13:59:29;9.90;33.60
4103;DHT22;2065;49.790;9.620;2023-02-28T14:02:44;9.90;32.90
4103;DHT22;2065;49.790;9.620;2023-02-28T14:05:16;10.10;31.90
4103;DHT22;2065;49.790;9.620;2023-02-28T14:07:46;10.10;31.70
4103;DHT22;2065;49.790;9.620;2023-02-28T14:10:26;10.20;31.80
4103;DHT22;2065;49.790;9.620;2023-02-28T14:12:57;10.10;31.60
4103;DHT22;2065;49.790;9.620;2023-02-28T14:15:55;10.00;32.00
4103;DHT22;2065;49.790;9.620;2023-02-28T14:18:30;10.10;32.00
4103;DHT22;2065;49.790;9.620;2023-02-28T14:21:01;10.10;31.80
4103;DHT22;2065;49.790;9.620;2023-02-28T14:23:39;10.10;32.50
4103;DHT22;2065;49.790;9.620;2023-02-28T14:26:18;10.30;32.20
4103;DHT22;2065;49.790;9.620;2023-02-28T14:28:56;10.60;32.10
4103;DHT22;2065;49.790;9.620;2023-02-28T14:31:32;10.70;31.10
4103;DHT22;2065;49.790;9.620;2023-02-28T14:34:21;10.60;30.60
4103;DHT22;2065;49.790;9.620;2023-02-28T14:36:52;10.20;31.70
4103;DHT22;2065;49.790;9.620;2023-02-28T14:39:22;10.20;31.90
4103;DHT22;2065;49.790;9.620;2023-02-28T14:41:49;10.20;32.00
4103;DHT22;2065;49.790;9.620;2023-02-28T14:44:19;10.10;31.60
4103;DHT22;2065;49.790;9.620;2023-02-28T14:46:49;9.90;33.70
4103;DHT22;2065;49.790;9.620;2023-02-28T14:49:20;10.10;31.90
4103;DHT22;2065;49.790;9.620;2023-02-28T14:51:49;10.20;31.60
4103;DHT22;2065;49.790;9.620;2023-02-28T14:54:20;10.40;31.30
4103;DHT22;2065;49.790;9.620;2023-02-28T14:56:50;10.40;31.20
4103;DHT22;2065;49.790;9.620;2023-02-28T14:59:25;10.50;31.30
4103;DHT22;2065;49.790;9.620;2023-02-28T15:04:36;9.60;32.50
4103;DHT22;2065;49.790;9.620;2023-02-28T15:07:10;9.70;33.20
4103;DHT22;2065;49.790;9.620;2023-02-28T15:09:37;10.00;32.30
4103;DHT22;2065;49.790;9.620;2023-02-28T15:12:05;9.80;32.90
4103;DHT22;2065;49.790;9.620;2023-02-28T15:14:32;9.60;33.40
4103;DHT22;2065;49.790;9.620;2023-02-28T15:17:03;9.60;33.50
4103;DHT22;2065;49.790;9.620;2023-02-28T15:19:36;9.90;33.70
4103;DHT22;2065;49.790;9.620;2023-02-28T15:22:08;10.20;32.80
4103;DHT22;2065;49.790;9.620;2023-02-28T15:24:41;10.30;32.20
4103;DHT22;2065;49.790;9.620;2023-02-28T15:27:13;10.00;32.40
4103;DHT22;2065;49.790;9.620;2023-02-28T15:29:45;10.10;32.40
4103;DHT22;2065;49.790;9.620;2023-02-28T15:32:29;10.20;32.70
4103;DHT22;2065;49.790;9.620;2023-02-28T15:34:59;10.40;32.50
4103;DHT22;2065;49.790;9.620;2023-02-28T15:37:38;10.60;32.40
4103;DHT22;2065;49.790;9.620;2023-02-28T15:40:12;10.50;32.00
4103;DHT22;2065;49.790;9.620;2023-02-28T15:42:39;10.10;32.80
4103;DHT22;2065;49.790;9.620;2023-02-28T15:45:26;10.00;32.70
4103;DHT22;2065;49.790;9.620;2023-02-28T15:47:54;10.10;33.50
4103;DHT22;2065;49.790;9.620;2023-02-28T15:50:23;10.10;33.00
4103;DHT22;2065;49.790;9.620;2023-02-28T15:52:50;9.90;33.70
4103;DHT22;2065;49.790;9.620;2023-02-28T15:55:20;10.00;33.30
4103;DHT22;2065;49.790;9.620;2023-02-28T15:57:50;9.60;33.80
4103;DHT22;2065;49.790;9.620;2023-02-28T16:00:21;9.50;34.30
4103;DHT22;2065;49.790;9.620;2023-02-28T16:02:49;9.60;33.90
4103;DHT22;2065;49.790;9.620;2023-02-28T16:05:23;9.50;33.80
4103;DHT22;2065;49.790;9.620;2023-02-28T16:07:57;9.60;34.10
4103;DHT22;2065;49.790;9.620;2023-02-28T16:10:25;9.70;33.90
4103;DHT22;2065;49.790;9.620;2023-02-28T16:12:54;9.40;34.00
4103;DHT22;2065;49.790;9.620;2023-02-28T16:15:22;9.50;34.50
4103;DHT22;2065;49.790;9.620;2023-02-28T16:17:50;9.60;34.40
4103;DHT22;2065;49.790;9.620;2023-02-28T16:20:21;9.60;34.00
4103;DHT22;2065;49.790;9.620;2023-02-28T16:22:50;9.80;34.90
4103;DHT22;2065;49.790;9.620;2023-02-28T16:25:18;9.60;33.90
4103;DHT22;2065;49.790;9.620;2023-02-28T16:27:48;9.40;35.30
4103;DHT22;2065;49.790;9.620;2023-02-28T16:30:19;9.30;34.90
4103;DHT22;2065;49.790;9.620;2023-02-28T16:32:47;9.40;35.50
4103;DHT22;2065;49.790;9.620;2023-02-28T16:35:15;9.50;35.50
4103;DHT22;2065;49.790;9.620;2023-02-28T16:37:43;9.50;35.40
4103;DHT22;2065;49.790;9.620;2023-02-28T16:40:16;9.40;34.80
4103;DHT22;2065;49.790;9.620;2023-02-28T16:42:43;9.40;34.70
4103;DHT22;2065;49.790;9.620;2023-02-28T16:45:21;9.50;35.10
4103;DHT22;2065;49.790;9.620;2023-02-28T16:47:48;9.70;35.40
4103;DHT22;2065;49.790;9.620;2023-02-28T16:50:17;9.80;35.10
4103;DHT22;2065;49.790;9.620;2023-02-28T16:52:45;9.80;35.30
4103;DHT22;2065;49.790;9.620;2023-02-28T16:55:12;9.90;35.00